Time;durP1;ratioP1;P1;durP2;ratioP2;P2;SDS_P1;SDS_P2;PMS_P1;PMS_P2;Temp;Humidity;BMP_temperature;BMP_pressure;BME280_temperature;BME280_humidity;BME280_pressure;Samples;Min_cycle;Max_cycle;Signal;HPM_P1;HPM_P2
2023/03/13 00:00:19;;;;;;;12.07;3.57;;;10.00;94.90;;;;;;21082457;28;20208;-74
2023/03/13 00:10:21;;;;;;;15.40;3.50;;;10.10;94.90;;;;;;21080817;28;20226;-73
2023/03/13 00:20:23;;;;;;;12.60;3.67;;;;;;;;;;21079609;28;20243;-74
2023/03/13 00:30:25;;;;;;;16.30;3.50;;;10.10;94.80;;;;;;21079576;28;20617;-74
2023/03/13 00:40:27;;;;;;;12.77;3.43;;;10.20;94.70;;;;;;21078740;28;20233;-74
2023/03/13 00:50:28;;;;;;;15.10;3.43;;;10.30;94.60;;;;;;21078375;28;20238;-74
2023/03/13 01:00:30;;;;;;;10.53;3.10;;;10.30;94.40;;;;;;21078458;28;20253;-74
2023/03/13 01:10:32;;;;;;;16.13;3.40;;;10.40;94.30;;;;;;21077804;28;20237;-73
2023/03/13 01:20:33;;;;;;;12.50;3.27;;;10.40;94.20;;;;;;21077343;28;20220;-75
2023/03/13 01:30:35;;;;;;;9.63;2.70;;;10.40;94.00;;;;;;21083787;28;20241;-74
2023/03/13 01:40:45;;;;;;;10.47;3.00;;;10.40;93.80;;;;;;21092018;28;20267;-74
2023/03/13 01:50:46;;;;;;;11.33;2.67;;;10.50;93.80;;;;;;21091493;28;20257;-73
2023/03/13 02:00:49;;;;;;;12.47;3.40;;;10.40;93.60;;;;;;21175509;28;20208;-74
2023/03/13 02:10:57;;;;;;;12.07;2.93;;;10.40;93.60;;;;;;21174402;28;20235;-75
2023/03/13 02:21:08;;;;;;;12.40;2.80;;;10.50;93.60;;;;;;21173601;28;20739;-76
2023/03/13 02:31:11;;;;;;;13.13;3.50;;;10.50;93.50;;;;;;21172828;28;20288;-75
2023/03/13 02:41:13;;;;;;;13.67;2.73;;;10.50;93.50;;;;;;21171587;28;20747;-75
2023/03/13 02:51:28;;;;;;;11.77;3.03;;;10.50;93.40;;;;;;21171048;28;20709;-74
2023/03/13 03:01:29;;;;;;;15.67;2.80;;;10.50;93.30;;;;;;21170567;28;20729;-74
2023/03/13 03:11:31;;;;;;;7.97;2.47;;;10.50;93.30;;;;;;21169181;28;20634;-74
2023/03/13 03:21:33;;;;;;;11.00;2.53;;;10.50;93.30;;;;;;21168590;28;20662;-75
2023/03/13 03:31:35;;;;;;;12.30;2.80;;;10.50;93.30;;;;;;21168002;28;20293;-75
2023/03/13 03:41:37;;;;;;;8.27;2.43;;;10.50;93.70;;;;;;21166790;28;20257;-75
2023/03/13 03:51:39;;;;;;;10.03;2.70;;;10.40;94.00;;;;;;21165741;28;20805;-76
2023/03/13 04:01:41;;;;;;;9.47;3.10;;;10.40;94.50;;;;;;21167093;28;20213;-76
2023/03/13 04:11:44;;;;;;;8.17;2.37;;;;;;;;;;21166095;28;20704;-74
2023/03/13 04:21:45;;;;;;;14.67;2.70;;;10.30;95.40;;;;;;21166635;28;20207;-75
2023/03/13 04:31:47;;;;;;;8.70;2.70;;;10.40;95.90;;;;;;21163912;28;20232;-75
2023/03/13 04:41:48;;;;;;;10.80;2.30;;;10.40;96.20;;;;;;21162741;28;20422;-75
2023/03/13 04:51:50;;;;;;;9.63;2.57;;;;;;;;;;21162328;28;20703;-74
2023/03/13 05:01:52;;;;;;;7.00;1.80;;;10.50;96.80;;;;;;21163409;28;20563;-74
2023/03/13 05:18:43;;;;;;;6.80;2.10;;;10.50;97.50;;;;;;20984243;28;20593;-73
2023/03/13 05:28:45;;;;;;;6.47;2.13;;;10.50;98.00;;;;;;20983906;28;20210;-73
2023/03/13 05:38:47;;;;;;;6.33;1.93;;;10.60;98.50;;;;;;20982920;28;20208;-73
2023/03/13 05:48:48;;;;;;;23.47;9.73;;;10.70;99.00;;;;;;20981959;28;20213;-73
2023/03/13 05:58:50;;;;;;;4.87;2.07;;;10.70;99.30;;;;;;20981612;28;20214;-73
2023/03/13 06:08:52;;;;;;;5.50;1.90;;;10.70;99.90;;;;;;20979546;28;20268;-75
2023/03/13 06:22:15;;;;;;;5.23;1.80;;;10.80;99.90;;;;;;21067495;27;20920;-75
2023/03/13 06:32:17;;;;;;;5.73;1.90;;;10.90;99.90;;;;;;21066773;28;20204;-76
2023/03/13 06:42:19;;;;;;;4.63;1.80;;;11.00;99.90;;;;;;21065575;28;20231;-73
2023/03/13 06:52:21;;;;;;;6.57;2.40;;;11.10;99.90;;;;;;21064151;28;20205;-73
2023/03/13 07:02:32;;;;;;;4.27;1.80;;;11.10;99.90;;;;;;21062791;28;20628;-74
2023/03/13 07:12:34;;;;;;;4.87;1.50;;;11.10;99.90;;;;;;21062883;28;20703;-73
2023/03/13 07:22:36;;;;;;;6.43;2.03;;;11.30;99.90;;;;;;21062288;28;20205;-73
2023/03/13 07:32:38;;;;;;;4.13;1.70;;;11.30;99.90;;;;;;21011803;28;20709;-73
2023/03/13 07:42:41;;;;;;;6.13;1.97;;;11.40;99.90;;;;;;21005372;28;20300;-74
2023/03/13 07:52:42;;;;;;;3.60;2.03;;;11.60;99.90;;;;;;21004694;28;20235;-73
2023/03/13 08:02:44;;;;;;;2.87;1.80;;;;;;;;;;21003977;28;20222;-74
2023/03/13 08:12:46;;;;;;;2.93;1.60;;;11.90;99.90;;;;;;21002649;28;20235;-74
2023/03/13 08:22:51;;;;;;;1.43;1.33;;;;;;;;;;21002375;28;20221;-73
2023/03/13 08:32:53;;;;;;;5.03;1.63;;;12.20;99.90;;;;;;21003229;28;20805;-74
2023/03/13 08:42:54;;;;;;;3.77;1.80;;;12.30;99.90;;;;;;20999094;28;20210;-73
2023/03/13 08:52:56;;;;;;;4.10;1.80;;;12.50;99.90;;;;;;20999347;28;20631;-74
2023/03/13 09:02:58;;;;;;;2.17;1.70;;;12.50;99.90;;;;;;20998647;28;20605;-74
2023/03/13 09:13:00;;;;;;;1.67;1.47;;;12.70;99.90;;;;;;20997404;28;20246;-75
2023/03/13 09:23:02;;;;;;;2.50;1.63;;;;;;;;;;20997123;28;20205;-75
2023/03/13 09:33:04;;;;;;;3.37;1.70;;;12.90;99.90;;;;;;20996195;28;20258;-75
2023/03/13 09:43:32;;;;;;;2.63;1.60;;;13.00;99.90;;;;;;20996225;28;20234;-75
2023/03/13 09:53:43;;;;;;;2.63;1.87;;;13.10;99.90;;;;;;20994698;28;20236;-75
2023/03/13 10:03:56;;;;;;;1.53;1.43;;;13.20;99.90;;;;;;20994906;28;20204;-75
2023/03/13 10:14:04;;;;;;;5.50;2.07;;;13.40;99.90;;;;;;20994310;28;20248;-74
2023/03/13 10:24:36;;;;;;;1.93;1.47;;;13.50;99.90;;;;;;20994122;28;20211;-75
2023/03/13 10:34:59;;;;;;;4.33;1.63;;;13.60;99.90;;;;;;20992891;28;20254;-75
2023/03/13 10:45:03;;;;;;;4.30;1.73;;;14.20;99.90;;;;;;20993506;28;20310;-74
2023/03/13 10:55:09;;;;;;;2.00;1.40;;;14.70;99.90;;;;;;20992674;28;20238;-74
2023/03/13 11:05:30;;;;;;;2.30;1.50;;;15.20;99.50;;;;;;21001595;28;20207;-74
2023/03/13 11:15:44;;;;;;;2.57;1.47;;;15.70;98.40;;;;;;21007654;28;20279;-75
2023/03/13 11:26:03;;;;;;;5.43;1.73;;;15.70;97.50;;;;;;21006903;28;20201;-74
2023/03/13 11:36:27;;;;;;;2.47;1.53;;;15.60;97.30;;;;;;21005172;28;20247;-75
2023/03/13 11:46:39;;;;;;;3.60;2.07;;;15.70;97.10;;;;;;21005153;28;20200;-74
2023/03/13 11:56:50;;;;;;;3.63;1.70;;;16.00;96.60;;;;;;21003976;28;20243;-74
2023/03/13 12:07:25;;;;;;;2.77;1.80;;;16.50;96.20;;;;;;21003218;28;20212;-74
2023/03/13 12:17:33;;;;;;;3.13;1.70;;;;;;;;;;21002085;28;20244;-75
2023/03/13 12:27:43;;;;;;;2.20;1.87;;;17.20;94.50;;;;;;21001271;28;20218;-74
2023/03/13 12:37:54;;;;;;;2.10;1.73;;;17.40;94.00;;;;;;21001205;28;20272;-75
2023/03/13 12:48:22;;;;;;;2.53;1.40;;;17.60;93.30;;;;;;21004046;28;20211;-76
2023/03/13 12:58:25;;;;;;;4.27;1.60;;;18.00;92.20;;;;;;21006355;28;20239;-76
2023/03/13 13:08:51;;;;;;;10.13;4.87;;;18.40;91.20;;;;;;20998767;28;20212;-75
2023/03/13 13:18:52;;;;;;;4.87;2.50;;;18.50;90.50;;;;;;20992632;28;20296;-76
2023/03/13 13:28:56;;;;;;;6.20;2.60;;;18.60;89.30;;;;;;20994052;28;20211;-75
2023/03/13 13:38:58;;;;;;;3.30;2.20;;;18.60;88.20;;;;;;20995693;28;20240;-73
2023/03/13 13:49:06;;;;;;;2.27;1.40;;;18.60;88.00;;;;;;20995134;28;20219;-76
2023/03/13 13:59:14;;;;;;;2.70;1.40;;;18.60;87.60;;;;;;20994536;28;20231;-76
2023/03/13 14:09:53;;;;;;;2.23;1.50;;;18.80;86.50;;;;;;20993730;28;20199;-75
2023/03/13 14:19:55;;;;;;;2.37;1.40;;;19.10;85.90;;;;;;20994080;28;20698;-79
2023/03/13 14:30:02;;;;;;;3.30;1.30;;;20.30;81.70;;;;;;20977536;28;20240;-76
2023/03/13 14:40:09;;;;;;;3.37;1.43;;;24.10;72.10;;;;;;21002862;28;20297;-72
2023/03/13 14:50:13;;;;;;;2.67;1.27;;;27.80;59.40;;;;;;20938078;28;20218;-76
2023/03/13 15:00:42;;;;;;;2.85;1.42;;;27.60;56.10;;;;;;20926216;28;20246;-76
2023/03/13 15:10:45;;;;;;;2.17;1.20;;;28.50;53.00;;;;;;20926017;28;20622;-72
2023/03/13 15:20:54;;;;;;;2.45;1.40;;;28.90;51.20;;;;;;20923206;28;20343;-74
2023/03/13 15:30:56;;;;;;;1.63;1.10;;;29.10;49.40;;;;;;20923473;28;20282;-73
2023/03/13 15:40:57;;;;;;;10.10;1.40;;;29.00;48.70;;;;;;20922665;28;20234;-72
2023/03/13 15:51:02;;;;;;;2.72;1.30;;;27.20;50.00;;;;;;20921344;28;20250;-72
2023/03/13 16:01:04;;;;;;;9.33;1.60;;;22.80;54.60;;;;;;20921756;28;20290;-71
2023/03/13 16:11:06;;;;;;;2.63;1.30;;;23.20;56.00;;;;;;20920644;28;20261;-78
2023/03/13 16:21:14;;;;;;;5.07;2.00;;;20.00;59.80;;;;;;20920197;28;20243;-73
2023/03/13 16:31:24;;;;;;;13.33;8.33;;;19.20;62.30;;;;;;20919744;28;20211;-76
2023/03/13 16:41:27;;;;;;;9.53;2.47;;;18.70;64.60;;;;;;20917325;28;20239;-69
2023/03/13 16:51:29;;;;;;;20.20;2.93;;;18.50;66.50;;;;;;20918117;28;20211;-71
2023/03/13 17:01:31;;;;;;;1.90;0.80;;;;;;;;;;20916804;28;20238;-74
2023/03/13 17:11:33;;;;;;;2.87;1.10;;;15.70;71.20;;;;;;20917187;28;20207;-72
2023/03/13 17:21:35;;;;;;;3.77;1.40;;;15.20;75.70;;;;;;20921459;28;20251;-74
2023/03/13 17:31:37;;;;;;;3.27;1.40;;;14.70;83.90;;;;;;20914036;28;20230;-73
2023/03/13 17:41:39;;;;;;;3.37;1.40;;;14.20;91.20;;;;;;20913893;28;20349;-74
2023/03/13 17:51:43;;;;;;;2.87;1.87;;;13.90;94.80;;;;;;20913291;28;20616;-77
2023/03/13 18:01:45;;;;;;;3.17;1.93;;;13.70;96.50;;;;;;20912423;28;20230;-74
2023/03/13 18:11:47;;;;;;;3.33;1.77;;;13.70;97.00;;;;;;20998448;28;20231;-73
2023/03/13 18:21:52;;;;;;;2.63;1.70;;;13.60;98.20;;;;;;21065736;28;20235;-73
2023/03/13 18:31:59;;;;;;;3.17;1.70;;;13.60;98.70;;;;;;20994890;28;20266;-76
2023/03/13 18:42:01;;;;;;;2.10;1.70;;;13.60;99.10;;;;;;20994930;28;20769;-81
2023/03/13 18:52:02;;;;;;;3.83;1.93;;;13.50;99.50;;;;;;20994807;28;20211;-83
2023/03/13 19:02:10;;;;;;;3.30;1.53;;;13.40;99.90;;;;;;20993691;28;20595;-76
2023/03/13 19:12:14;;;;;;;2.17;1.50;;;13.30;99.90;;;;;;20993532;28;20755;-79
2023/03/13 19:22:15;;;;;;;3.10;2.00;;;13.40;99.90;;;;;;21017469;28;20239;-78
2023/03/13 19:32:18;;;;;;;4.70;3.03;;;13.40;99.90;;;;;;21054947;28;20203;-78
2023/03/13 19:42:19;;;;;;;6.43;2.53;;;13.40;99.90;;;;;;21020858;28;20235;-75
2023/03/13 19:52:21;;;;;;;5.20;3.47;;;13.40;99.90;;;;;;20987550;28;20199;-76
2023/03/13 20:02:23;;;;;;;4.67;3.37;;;13.30;99.90;;;;;;20964125;28;20696;-75
2023/03/13 20:12:24;;;;;;;3.07;2.40;;;13.40;99.90;;;;;;20967556;28;20265;-79
2023/03/13 20:22:26;;;;;;;3.60;1.80;;;13.30;99.90;;;;;;20954290;28;20289;-83
2023/03/13 20:32:28;;;;;;;2.43;1.30;;;12.90;99.90;;;;;;20962273;28;20214;-81
2023/03/13 20:42:30;;;;;;;4.10;1.57;;;12.80;99.90;;;;;;20967271;28;20796;-80
2023/03/13 20:52:32;;;;;;;3.00;1.30;;;12.90;99.90;;;;;;20951426;28;20618;-80
2023/03/13 21:02:33;;;;;;;1.83;1.20;;;12.80;99.90;;;;;;20959669;28;20644;-80
2023/03/13 21:12:35;;;;;;;1.97;1.37;;;12.70;99.90;;;;;;20970723;28;20231;-75
2023/03/13 21:22:41;;;;;;;2.23;1.40;;;12.60;99.90;;;;;;21010954;28;20703;-77
2023/03/13 21:32:44;;;;;;;1.60;1.30;;;12.40;99.90;;;;;;20944830;28;20212;-77
2023/03/13 21:42:46;;;;;;;2.83;1.30;;;12.40;99.90;;;;;;20949809;28;20671;-80
2023/03/13 21:52:47;;;;;;;3.57;1.57;;;12.30;99.90;;;;;;20946920;28;20303;-78
2023/03/13 22:02:49;;;;;;;2.20;1.00;;;12.20;99.90;;;;;;20952141;28;20239;-77
2023/03/13 22:12:51;;;;;;;1.23;1.10;;;12.00;99.90;;;;;;20947814;28;20317;-76
2023/03/13 22:22:52;;;;;;;0.83;0.80;;;12.00;99.90;;;;;;20946187;28;20288;-79
2023/03/13 22:32:54;;;;;;;0.93;0.90;;;11.80;99.90;;;;;;20953061;28;20576;-75
2023/03/13 22:42:56;;;;;;;1.63;1.07;;;11.70;99.90;;;;;;20947081;28;20247;-78
2023/03/13 22:53:41;;;;;;;1.03;0.97;;;11.70;99.90;;;;;;21192465;27;20572;-78
2023/03/13 23:03:43;;;;;;;1.30;0.83;;;11.70;99.90;;;;;;21160775;28;20231;-75
2023/03/13 23:13:45;;;;;;;0.70;0.70;;;11.70;99.90;;;;;;21149317;28;20216;-77
2023/03/13 23:23:47;;;;;;;1.00;0.73;;;11.60;99.90;;;;;;21147704;28;20262;-78
2023/03/13 23:33:49;;;;;;;1.13;1.03;;;11.60;99.90;;;;;;21149347;28;20661;-77
2023/03/13 23:43:51;;;;;;;1.97;1.00;;;11.60;99.90;;;;;;21148548;28;20212;-78
2023/03/13 23:53:52;;;;;;;3.60;0.90;;;11.60;99.90;;;;;;21147755;28;20537;-75
